Time;durP1;ratioP1;P1;durP2;ratioP2;P2;SDS_P1;SDS_P2;PMS_P1;PMS_P2;Temp;Humidity;BMP_temperature;BMP_pressure;BME280_temperature;BME280_humidity;BME280_pressure;Samples;Min_cycle;Max_cycle;Signal;HPM_P1;HPM_P2
2023/01/07 00:01:57;;;;;;;7.37;5.40;;;11.50;99.90;;;;;;5026127;28;20281;-81
2023/01/07 00:04:23;;;;;;;7.90;4.87;;;11.50;99.90;;;;;;5026090;28;20239;-77
2023/01/07 00:06:51;;;;;;;7.20;4.80;;;11.50;99.90;;;;;;5007610;28;20207;-76
2023/01/07 00:09:18;;;;;;;8.87;5.57;;;11.50;99.90;;;;;;5006501;28;20203;-77
2023/01/07 00:11:46;;;;;;;6.03;5.00;;;11.50;99.90;;;;;;5005862;28;20293;-80
2023/01/07 00:14:14;;;;;;;7.60;4.90;;;11.50;99.90;;;;;;5006241;28;20928;-81
2023/01/07 00:16:42;;;;;;;7.17;4.00;;;11.50;99.90;;;;;;5006606;28;20326;-75
2023/01/07 00:19:12;;;;;;;4.63;3.50;;;11.60;99.90;;;;;;5006261;28;20203;-75
2023/01/07 00:21:39;;;;;;;6.80;4.43;;;11.50;99.90;;;;;;5025333;28;20213;-77
2023/01/07 00:24:07;;;;;;;6.77;4.27;;;11.60;99.90;;;;;;5014434;28;20793;-78
2023/01/07 00:26:36;;;;;;;6.27;3.80;;;11.60;99.90;;;;;;5005543;28;20210;-78
2023/01/07 00:29:04;;;;;;;7.23;4.03;;;11.60;99.90;;;;;;5005531;28;20231;-76
2023/01/07 00:31:34;;;;;;;5.20;4.03;;;11.60;99.90;;;;;;5005545;28;20290;-78
2023/01/07 00:34:08;;;;;;;6.10;3.83;;;11.60;99.90;;;;;;5005904;28;20207;-77
2023/01/07 00:36:41;;;;;;;7.07;3.27;;;11.70;99.90;;;;;;5004675;28;20318;-79
2023/01/07 00:39:10;;;;;;;6.90;3.60;;;11.60;99.90;;;;;;5006177;28;20195;-77
2023/01/07 00:41:37;;;;;;;3.93;3.10;;;11.60;99.90;;;;;;5004900;28;20740;-77
2023/01/07 00:44:05;;;;;;;4.67;3.00;;;11.60;99.90;;;;;;5004968;28;20257;-77
2023/01/07 00:46:34;;;;;;;7.00;3.40;;;11.60;99.90;;;;;;5004544;28;20213;-81
2023/01/07 00:49:01;;;;;;;3.40;3.03;;;11.70;99.90;;;;;;5005157;28;20215;-78
2023/01/07 00:51:28;;;;;;;6.07;3.60;;;11.70;99.90;;;;;;5003929;28;20522;-77
2023/01/07 00:53:55;;;;;;;7.83;3.57;;;11.70;99.90;;;;;;5004889;28;20333;-78
2023/01/07 00:56:22;;;;;;;4.20;3.50;;;11.70;99.90;;;;;;5003784;28;20200;-77
2023/01/07 00:58:49;;;;;;;5.20;3.80;;;11.70;99.90;;;;;;5005239;28;20209;-77
2023/01/07 01:01:16;;;;;;;4.10;3.60;;;11.70;99.90;;;;;;5005145;28;20690;-78
2023/01/07 01:03:44;;;;;;;4.67;4.17;;;11.70;99.90;;;;;;5004457;28;20254;-77
2023/01/07 01:06:14;;;;;;;4.60;4.20;;;11.70;99.90;;;;;;5004989;28;20604;-77
2023/01/07 01:08:42;;;;;;;5.97;4.40;;;11.70;99.90;;;;;;5003970;28;20211;-78
2023/01/07 01:11:10;;;;;;;5.43;4.63;;;11.70;99.90;;;;;;5003805;28;20207;-78
2023/01/07 01:13:39;;;;;;;5.77;4.00;;;11.70;99.90;;;;;;5004178;28;20200;-76
2023/01/07 01:16:13;;;;;;;7.17;4.33;;;11.70;99.90;;;;;;5011300;28;20293;-76
2023/01/07 01:18:40;;;;;;;4.97;4.13;;;11.60;99.90;;;;;;5023562;28;20248;-76
2023/01/07 01:21:11;;;;;;;4.43;4.03;;;11.60;99.90;;;;;;5007328;28;20289;-77
2023/01/07 01:23:39;;;;;;;4.20;3.70;;;11.60;99.90;;;;;;5003919;28;20211;-77
2023/01/07 01:26:08;;;;;;;5.07;4.57;;;11.60;99.90;;;;;;5003654;28;20214;-76
2023/01/07 01:28:36;;;;;;;4.93;4.10;;;11.60;99.90;;;;;;5004370;28;20223;-77
2023/01/07 01:31:03;;;;;;;5.07;4.10;;;11.50;99.90;;;;;;5004013;28;20222;-78
2023/01/07 01:33:30;;;;;;;4.27;3.87;;;11.50;99.90;;;;;;5003213;28;20659;-77
2023/01/07 01:35:57;;;;;;;3.97;3.53;;;11.50;99.90;;;;;;5004176;28;20215;-77
2023/01/07 01:38:25;;;;;;;5.03;3.70;;;11.50;99.90;;;;;;5004327;28;20200;-75
2023/01/07 01:40:52;;;;;;;3.83;3.27;;;11.50;99.90;;;;;;5004130;28;20530;-77
2023/01/07 01:43:30;;;;;;;5.43;3.67;;;11.50;99.90;;;;;;5004136;28;20230;-80
2023/01/07 01:46:00;;;;;;;4.93;3.00;;;11.50;99.90;;;;;;5003955;28;20289;-78
2023/01/07 01:48:27;;;;;;;4.10;3.70;;;11.40;99.90;;;;;;5003807;28;20203;-76
2023/01/07 01:50:54;;;;;;;3.90;3.50;;;11.40;99.90;;;;;;5003859;28;20261;-77
2023/01/07 01:53:27;;;;;;;4.60;3.70;;;11.40;99.90;;;;;;5003900;28;20200;-77
2023/01/07 01:55:58;;;;;;;4.07;3.67;;;11.40;99.90;;;;;;5005515;28;20203;-78
2023/01/07 01:58:30;;;;;;;3.73;2.97;;;11.40;99.90;;;;;;5003963;28;20511;-77
2023/01/07 02:00:57;;;;;;;3.67;3.03;;;11.40;99.90;;;;;;5003333;28;20187;-77
2023/01/07 02:03:27;;;;;;;3.70;3.10;;;11.40;99.90;;;;;;5004064;28;20219;-78
2023/01/07 02:05:54;;;;;;;4.40;2.97;;;11.40;99.90;;;;;;5003865;28;20234;-78
2023/01/07 02:08:22;;;;;;;5.80;3.30;;;11.40;99.90;;;;;;5003311;28;20572;-77
2023/01/07 02:11:00;;;;;;;3.43;3.13;;;11.30;99.90;;;;;;5004080;28;20211;-77
2023/01/07 02:13:43;;;;;;;3.60;3.07;;;11.30;99.90;;;;;;5003389;28;20518;-77
2023/01/07 02:16:17;;;;;;;4.20;3.20;;;11.30;99.90;;;;;;5003682;28;20270;-80
2023/01/07 02:18:56;;;;;;;4.03;3.23;;;11.30;99.90;;;;;;5003061;28;20195;-77
2023/01/07 02:21:42;;;;;;;5.93;3.37;;;11.30;99.90;;;;;;5003258;28;20285;-83
2023/01/07 02:24:53;;;;;;;4.20;2.90;;;11.30;99.90;;;;;;5004265;28;20227;-78
2023/01/07 02:27:56;;;;;;;3.23;2.80;;;11.30;99.90;;;;;;5005862;28;20642;-79
2023/01/07 02:30:45;;;;;;;3.37;3.07;;;11.30;99.90;;;;;;5004578;28;20518;-79
2023/01/07 02:33:25;;;;;;;4.10;3.20;;;11.30;99.90;;;;;;5005640;28;20188;-83
2023/01/07 02:36:24;;;;;;;4.87;3.20;;;11.30;99.90;;;;;;5004387;28;20511;-78
2023/01/07 02:39:04;;;;;;;5.63;3.40;;;11.20;99.90;;;;;;5006537;28;20212;-81
2023/01/07 02:41:39;;;;;;;4.70;3.50;;;11.20;99.90;;;;;;5008623;28;20596;-78
2023/01/07 02:44:11;;;;;;;4.57;3.33;;;11.20;99.90;;;;;;5008462;28;20215;-77
2023/01/07 02:46:43;;;;;;;3.53;2.90;;;11.20;99.90;;;;;;5008054;28;20289;-77
2023/01/07 02:49:16;;;;;;;5.00;3.63;;;11.10;99.90;;;;;;5008124;28;20227;-77
2023/01/07 02:51:43;;;;;;;3.93;3.53;;;11.10;99.90;;;;;;5008172;28;20239;-77
2023/01/07 02:54:14;;;;;;;4.37;3.60;;;11.10;99.90;;;;;;5009548;28;20199;-78
2023/01/07 02:57:03;;;;;;;4.53;3.50;;;11.10;99.90;;;;;;5008809;28;20290;-80
2023/01/07 02:59:59;;;;;;;7.90;4.10;;;11.00;99.90;;;;;;5011947;28;20203;-85
2023/01/07 03:03:01;;;;;;;4.87;3.97;;;11.10;99.90;;;;;;5028050;28;20223;-79
2023/01/07 03:05:44;;;;;;;4.63;3.93;;;11.00;99.90;;;;;;5029454;28;20225;-81
2023/01/07 03:08:34;;;;;;;5.33;4.80;;;11.00;99.90;;;;;;5007121;28;20253;-79
2023/01/07 03:11:04;;;;;;;5.60;5.10;;;11.00;99.90;;;;;;5006342;28;20290;-80
2023/01/07 03:13:38;;;;;;;7.87;5.43;;;11.00;99.90;;;;;;5012033;28;20299;-93
2023/01/07 03:16:10;;;;;;;7.00;5.27;;;11.00;99.90;;;;;;5012237;28;20200;-88
2023/01/07 03:18:42;;;;;;;6.03;5.43;;;11.00;99.90;;;;;;5012399;28;20241;-90
2023/01/07 03:21:16;;;;;;;6.33;5.73;;;10.90;99.90;;;;;;5014122;28;20242;-89
2023/01/07 03:23:47;;;;;;;8.30;6.80;;;10.90;99.90;;;;;;5031862;28;20297;-90
2023/01/07 03:26:17;;;;;;;9.63;7.43;;;10.90;99.90;;;;;;5031170;28;20305;-89
2023/01/07 03:28:45;;;;;;;7.97;7.23;;;10.90;99.90;;;;;;5032040;28;20229;-90
2023/01/07 03:31:15;;;;;;;8.10;7.17;;;11.00;99.90;;;;;;5030299;28;20289;-90
2023/01/07 03:33:49;;;;;;;7.70;7.00;;;10.90;99.90;;;;;;5011662;28;20202;-91
2023/01/07 03:36:22;;;;;;;6.93;6.00;;;10.90;99.90;;;;;;5011890;28;20290;-86
2023/01/07 03:38:51;;;;;;;6.90;6.23;;;10.90;99.90;;;;;;5011275;28;20231;-89
2023/01/07 03:43:59;;;;;;;7.10;6.40;;;10.80;99.90;;;;;;5006973;28;20639;-77
2023/01/07 03:46:27;;;;;;;8.10;6.30;;;10.80;99.90;;;;;;5007451;28;20214;-84
2023/01/07 03:48:54;;;;;;;8.73;6.67;;;10.80;99.90;;;;;;5007375;28;20206;-85
2023/01/07 03:51:22;;;;;;;10.30;6.13;;;10.80;99.90;;;;;;5007577;28;20199;-78
2023/01/07 03:53:49;;;;;;;8.53;6.77;;;10.80;99.90;;;;;;5007253;28;20630;-77
2023/01/07 03:56:16;;;;;;;7.43;6.33;;;10.80;99.90;;;;;;5007595;28;20780;-82
2023/01/07 03:58:43;;;;;;;7.97;7.17;;;10.80;99.90;;;;;;5008544;28;20306;-80
2023/01/07 04:01:10;;;;;;;11.37;7.00;;;10.80;99.90;;;;;;5017445;28;20301;-77
2023/01/07 04:03:36;;;;;;;8.73;6.90;;;10.80;99.90;;;;;;5023888;28;20205;-79
2023/01/07 04:06:03;;;;;;;11.97;7.53;;;10.80;99.90;;;;;;5005959;28;20279;-78
2023/01/07 04:08:32;;;;;;;9.03;7.33;;;10.80;99.90;;;;;;5005406;28;20211;-79
2023/01/07 04:10:58;;;;;;;10.20;7.60;;;10.80;99.90;;;;;;5007018;28;20221;-81
2023/01/07 04:13:25;;;;;;;6.73;6.00;;;10.90;99.90;;;;;;5008632;28;20593;-90
2023/01/07 04:15:52;;;;;;;8.77;6.87;;;10.80;99.90;;;;;;5015785;28;20194;-84
2023/01/07 04:18:19;;;;;;;10.80;7.70;;;10.80;99.90;;;;;;5028699;28;20207;-85
2023/01/07 04:20:47;;;;;;;9.77;7.77;;;10.80;99.90;;;;;;5026897;28;20206;-80
2023/01/07 04:23:15;;;;;;;12.90;7.20;;;10.90;99.90;;;;;;5027569;28;20546;-85
2023/01/07 04:25:46;;;;;;;10.77;7.37;;;10.80;99.90;;;;;;5008028;28;20447;-83
2023/01/07 04:28:13;;;;;;;8.27;6.83;;;10.90;99.90;;;;;;5006492;28;20245;-78
2023/01/07 04:30:40;;;;;;;8.57;6.37;;;10.90;99.90;;;;;;5005322;28;20666;-79
2023/01/07 04:33:07;;;;;;;9.37;6.70;;;10.80;99.90;;;;;;5005681;28;20318;-78
2023/01/07 04:35:34;;;;;;;8.77;6.67;;;10.80;99.90;;;;;;5004551;28;20203;-79
2023/01/07 04:38:01;;;;;;;9.00;6.27;;;10.90;99.90;;;;;;5005183;28;20346;-77
2023/01/07 04:40:28;;;;;;;10.50;6.10;;;10.80;99.90;;;;;;5004575;28;20323;-77
2023/01/07 04:42:57;;;;;;;8.47;6.27;;;10.90;99.90;;;;;;5004504;28;20286;-78
2023/01/07 04:45:24;;;;;;;9.10;6.50;;;10.80;99.90;;;;;;5004769;28;20318;-77
2023/01/07 04:47:54;;;;;;;8.93;6.03;;;10.80;99.90;;;;;;5004326;28;20203;-78
2023/01/07 04:50:21;;;;;;;10.33;6.27;;;10.90;99.90;;;;;;5004177;28;20226;-76
2023/01/07 04:52:48;;;;;;;7.43;6.07;;;10.80;99.90;;;;;;5004980;28;20207;-77
2023/01/07 04:55:15;;;;;;;7.67;5.63;;;10.80;99.90;;;;;;5004655;28;20286;-78
2023/01/07 04:57:42;;;;;;;8.07;5.83;;;10.80;99.90;;;;;;5004957;28;20230;-77
2023/01/07 05:00:11;;;;;;;14.43;6.73;;;10.90;99.90;;;;;;5004169;28;20206;-76
2023/01/07 05:02:38;;;;;;;8.03;6.10;;;10.80;99.90;;;;;;5003609;28;20299;-79
2023/01/07 05:05:06;;;;;;;8.83;6.47;;;10.80;99.90;;;;;;5004637;28;20241;-77
2023/01/07 05:07:33;;;;;;;8.60;6.20;;;10.80;99.90;;;;;;5003956;28;20199;-76
2023/01/07 05:10:00;;;;;;;9.90;6.60;;;10.70;99.90;;;;;;5004629;28;20203;-77
2023/01/07 05:12:27;;;;;;;9.03;5.80;;;10.70;99.90;;;;;;5004273;28;20764;-77
2023/01/07 05:14:54;;;;;;;10.30;6.50;;;10.70;99.90;;;;;;5004303;28;20209;-77
2023/01/07 05:17:22;;;;;;;9.37;7.23;;;10.70;99.90;;;;;;5004194;28;20214;-78
2023/01/07 05:19:49;;;;;;;10.67;6.17;;;10.70;99.90;;;;;;5003886;28;20314;-77
2023/01/07 05:22:15;;;;;;;8.50;6.47;;;10.70;99.90;;;;;;5004696;28;20226;-79
2023/01/07 05:24:42;;;;;;;9.40;6.87;;;10.60;99.90;;;;;;5004990;28;20546;-76
2023/01/07 05:27:09;;;;;;;10.50;6.70;;;10.60;99.90;;;;;;5006603;28;20199;-76
2023/01/07 05:29:37;;;;;;;12.63;7.33;;;10.60;99.90;;;;;;5006697;28;20234;-78
2023/01/07 05:32:05;;;;;;;9.70;7.40;;;10.60;99.90;;;;;;5006956;28;20298;-77
2023/01/07 05:34:33;;;;;;;13.80;7.53;;;10.70;99.90;;;;;;5004823;28;20310;-76
2023/01/07 05:37:00;;;;;;;11.90;7.60;;;10.70;99.90;;;;;;5004934;28;20916;-76
2023/01/07 05:39:27;;;;;;;11.63;7.67;;;10.60;99.90;;;;;;5004112;28;20195;-86
2023/01/07 05:41:54;;;;;;;12.47;8.13;;;10.60;99.90;;;;;;5004774;28;20199;-77
2023/01/07 05:44:20;;;;;;;10.30;8.10;;;10.60;99.90;;;;;;5005090;28;20207;-76
2023/01/07 05:46:47;;;;;;;11.17;8.60;;;10.60;99.90;;;;;;5003517;28;20213;-76
2023/01/07 05:49:14;;;;;;;13.10;8.83;;;10.60;99.90;;;;;;5005227;28;20199;-76
2023/01/07 05:51:43;;;;;;;10.37;8.03;;;10.60;99.90;;;;;;5003419;28;20846;-77
2023/01/07 05:54:10;;;;;;;11.70;8.47;;;10.50;99.90;;;;;;5004661;28;20213;-78
2023/01/07 05:56:36;;;;;;;12.63;9.23;;;10.50;99.90;;;;;;5004027;28;20678;-76
2023/01/07 05:59:03;;;;;;;14.63;9.47;;;10.50;99.90;;;;;;5004014;28;20191;-77
2023/01/07 06:01:30;;;;;;;14.47;11.10;;;10.50;99.90;;;;;;5005443;28;20203;-82
2023/01/07 06:03:57;;;;;;;9.40;8.40;;;10.50;99.90;;;;;;5007250;28;20251;-84
2023/01/07 06:06:24;;;;;;;13.10;9.70;;;10.50;99.90;;;;;;5006282;28;20225;-87
2023/01/07 06:08:52;;;;;;;12.17;10.43;;;10.50;99.90;;;;;;5007053;28;20235;-83
2023/01/07 06:11:19;;;;;;;16.80;10.60;;;10.50;99.90;;;;;;5009334;28;20203;-78
2023/01/07 06:13:46;;;;;;;15.77;10.10;;;10.50;99.90;;;;;;5030326;28;20256;-89
2023/01/07 06:16:13;;;;;;;12.77;10.37;;;10.50;99.90;;;;;;5030618;28;20295;-81
2023/01/07 06:18:40;;;;;;;10.33;9.23;;;10.50;99.90;;;;;;5031082;28;20218;-78
2023/01/07 06:21:07;;;;;;;13.37;10.47;;;10.50;99.90;;;;;;5026441;28;20195;-79
2023/01/07 06:23:34;;;;;;;17.90;11.27;;;10.40;99.90;;;;;;5010677;28;20199;-82
2023/01/07 06:26:02;;;;;;;11.70;9.17;;;10.40;99.90;;;;;;5010263;28;20227;-79
2023/01/07 06:28:30;;;;;;;13.67;10.10;;;10.40;99.90;;;;;;5009049;28;20358;-77
2023/01/07 06:30:56;;;;;;;14.10;10.53;;;10.40;99.90;;;;;;5014956;28;20214;-78
2023/01/07 06:33:23;;;;;;;12.77;10.73;;;10.40;99.90;;;;;;5030042;28;20198;-77
2023/01/07 06:35:50;;;;;;;13.63;10.97;;;10.40;99.90;;;;;;5027663;28;20318;-77
2023/01/07 06:38:17;;;;;;;11.97;9.83;;;10.40;99.90;;;;;;5029913;28;20230;-78
2023/01/07 06:40:44;;;;;;;13.70;10.47;;;10.40;99.90;;;;;;5018998;28;20229;-79
2023/01/07 06:43:13;;;;;;;13.83;10.60;;;10.40;99.90;;;;;;5010020;28;20222;-78
2023/01/07 06:45:39;;;;;;;15.13;9.83;;;10.40;99.90;;;;;;5009739;28;20321;-81
2023/01/07 06:48:06;;;;;;;14.33;11.20;;;10.30;99.90;;;;;;5009987;28;20949;-80
2023/01/07 06:50:33;;;;;;;13.67;9.87;;;10.30;99.90;;;;;;5009836;28;20505;-80
2023/01/07 06:53:00;;;;;;;14.07;9.87;;;10.30;99.90;;;;;;5007619;28;20208;-90
2023/01/07 06:55:27;;;;;;;13.10;10.30;;;10.30;99.90;;;;;;5007112;28;20207;-77
2023/01/07 06:57:54;;;;;;;11.90;9.90;;;10.30;99.90;;;;;;5007821;28;20203;-79
2023/01/07 07:00:22;;;;;;;11.63;10.03;;;10.30;99.90;;;;;;5007537;28;20210;-77
2023/01/07 07:02:49;;;;;;;12.70;9.37;;;10.30;99.90;;;;;;5006763;28;20225;-78
2023/01/07 07:05:16;;;;;;;12.03;10.03;;;10.20;99.90;;;;;;5028071;28;20235;-78
2023/01/07 07:07:43;;;;;;;15.37;10.17;;;10.20;99.90;;;;;;5006920;28;20196;-77
2023/01/07 07:10:10;;;;;;;18.20;10.73;;;10.20;99.90;;;;;;5006877;28;20215;-77
2023/01/07 07:12:38;;;;;;;12.77;9.70;;;10.20;99.90;;;;;;5007763;28;20480;-79
2023/01/07 07:15:07;;;;;;;11.57;9.37;;;10.20;99.90;;;;;;5006750;28;20210;-76
2023/01/07 07:17:35;;;;;;;15.87;9.80;;;10.20;99.90;;;;;;5026677;28;20301;-77
2023/01/07 07:20:02;;;;;;;12.73;8.80;;;10.20;99.90;;;;;;5027471;28;20679;-78
2023/01/07 07:22:29;;;;;;;12.57;9.20;;;10.20;99.90;;;;;;5010766;28;20666;-77
2023/01/07 07:24:56;;;;;;;13.40;9.03;;;10.20;99.90;;;;;;5005779;28;20231;-78
2023/01/07 07:27:23;;;;;;;15.33;10.17;;;10.20;99.90;;;;;;5007601;28;20199;-78
2023/01/07 07:29:50;;;;;;;12.43;8.57;;;10.10;99.90;;;;;;5007444;28;20206;-78
2023/01/07 07:32:17;;;;;;;11.97;8.73;;;10.10;99.90;;;;;;5005968;28;20672;-80
2023/01/07 07:34:45;;;;;;;15.33;8.57;;;10.10;99.90;;;;;;5005444;28;20607;-79
2023/01/07 07:37:12;;;;;;;9.57;8.10;;;10.10;99.90;;;;;;5024031;28;20672;-76
2023/01/07 07:39:39;;;;;;;12.70;8.70;;;10.10;99.90;;;;;;5025834;28;20297;-77
2023/01/07 07:42:06;;;;;;;12.20;8.90;;;10.00;99.90;;;;;;5026323;28;20207;-77
2023/01/07 07:44:32;;;;;;;15.23;8.40;;;10.00;99.90;;;;;;5005777;28;20199;-77
2023/01/07 07:46:59;;;;;;;12.53;8.03;;;10.00;99.90;;;;;;5012214;28;20237;-78
2023/01/07 07:49:26;;;;;;;12.00;8.60;;;10.00;99.90;;;;;;5008666;28;20221;-77
2023/01/07 07:51:55;;;;;;;12.20;8.30;;;10.00;99.90;;;;;;5006032;28;20199;-78
2023/01/07 07:54:22;;;;;;;12.80;8.00;;;10.00;99.90;;;;;;5006203;28;20614;-76
2023/01/07 07:56:49;;;;;;;11.07;7.17;;;10.00;99.90;;;;;;5006240;28;20612;-76
2023/01/07 07:59:16;;;;;;;11.03;7.20;;;10.00;99.90;;;;;;5005965;28;20510;-76
2023/01/07 08:01:42;;;;;;;12.07;8.07;;;10.00;99.90;;;;;;5006447;28;20211;-77
2023/01/07 08:04:09;;;;;;;12.17;7.20;;;10.00;99.90;;;;;;5006477;28;20326;-78
2023/01/07 08:06:36;;;;;;;11.47;7.63;;;10.10;99.90;;;;;;5017408;28;20319;-77
2023/01/07 08:09:04;;;;;;;8.73;6.40;;;10.10;99.90;;;;;;5020598;28;20290;-78
2023/01/07 08:11:31;;;;;;;11.07;6.93;;;10.10;99.90;;;;;;5021097;28;20775;-78
2023/01/07 08:13:58;;;;;;;9.70;6.73;;;10.10;99.90;;;;;;5015788;28;20203;-76
2023/01/07 08:16:25;;;;;;;9.83;6.53;;;10.10;99.90;;;;;;5024857;28;20208;-76
2023/01/07 08:18:52;;;;;;;8.10;6.13;;;10.10;99.90;;;;;;5019857;28;20312;-77
2023/01/07 08:21:19;;;;;;;8.27;5.97;;;10.10;99.90;;;;;;5019825;28;20218;-76
2023/01/07 08:23:46;;;;;;;9.50;5.97;;;10.10;99.90;;;;;;5018400;28;20580;-77
2023/01/07 08:26:15;;;;;;;9.07;5.60;;;10.10;99.90;;;;;;5019359;28;20349;-76
2023/01/07 08:28:42;;;;;;;6.07;4.67;;;10.20;99.90;;;;;;5025245;28;20325;-76
2023/01/07 08:31:09;;;;;;;6.83;4.70;;;10.20;99.90;;;;;;5014613;28;20206;-77
2023/01/07 08:33:38;;;;;;;7.77;4.00;;;10.20;99.90;;;;;;5004909;28;20195;-79
2023/01/07 08:36:07;;;;;;;6.00;4.13;;;10.20;99.90;;;;;;5022007;28;20199;-76
2023/01/07 08:38:34;;;;;;;5.73;3.73;;;10.30;99.90;;;;;;5010283;28;20207;-77
2023/01/07 08:41:01;;;;;;;5.10;3.40;;;10.30;99.90;;;;;;5005106;28;20608;-76
2023/01/07 08:43:30;;;;;;;4.87;3.03;;;10.30;99.90;;;;;;5005443;28;20675;-77
2023/01/07 08:45:56;;;;;;;4.57;3.20;;;10.30;99.90;;;;;;5004606;28;20235;-76
2023/01/07 08:48:23;;;;;;;4.13;3.17;;;10.40;99.90;;;;;;5007370;28;20230;-78
2023/01/07 08:50:52;;;;;;;4.27;3.43;;;10.40;99.90;;;;;;5005679;28;20965;-78
2023/01/07 08:53:19;;;;;;;4.50;3.23;;;10.40;99.90;;;;;;5005671;28;20230;-76
2023/01/07 08:55:46;;;;;;;4.40;3.37;;;10.40;99.90;;;;;;5004536;28;20195;-75
2023/01/07 08:58:13;;;;;;;7.47;2.97;;;10.40;99.90;;;;;;5005787;28;20207;-77
2023/01/07 09:00:42;;;;;;;7.70;3.27;;;10.40;99.90;;;;;;5005328;28;20215;-77
2023/01/07 09:03:09;;;;;;;2.93;2.23;;;10.50;99.90;;;;;;5004358;28;20207;-77
2023/01/07 09:05:36;;;;;;;3.47;2.50;;;10.50;99.90;;;;;;5004882;28;20235;-77
2023/01/07 09:08:02;;;;;;;4.77;2.30;;;10.50;99.90;;;;;;5006249;28;20207;-78
2023/01/07 09:10:30;;;;;;;3.07;2.60;;;10.50;99.90;;;;;;5004704;28;20230;-75
2023/01/07 09:12:57;;;;;;;3.47;2.47;;;10.60;99.90;;;;;;5005716;28;20207;-76
2023/01/07 09:15:24;;;;;;;4.30;2.40;;;10.60;99.90;;;;;;5005639;28;20230;-76
2023/01/07 09:17:52;;;;;;;3.63;2.63;;;10.60;99.90;;;;;;5004318;28;20947;-77
2023/01/07 09:20:19;;;;;;;5.43;2.40;;;10.70;99.90;;;;;;5005405;28;20207;-77
2023/01/07 09:22:47;;;;;;;4.53;2.30;;;10.70;99.90;;;;;;5004312;28;20674;-77
2023/01/07 09:25:14;;;;;;;4.43;2.60;;;10.60;99.90;;;;;;5005287;28;20209;-80
2023/01/07 09:27:42;;;;;;;2.73;2.23;;;10.60;99.90;;;;;;5004786;28;20229;-75
2023/01/07 09:30:09;;;;;;;5.70;2.30;;;10.70;99.90;;;;;;5006452;28;20207;-81
2023/01/07 09:32:36;;;;;;;5.27;2.60;;;10.70;99.90;;;;;;5006283;28;20312;-76
2023/01/07 09:35:06;;;;;;;3.67;2.20;;;10.70;99.90;;;;;;5004691;28;20217;-76
2023/01/07 09:37:33;;;;;;;6.17;2.67;;;10.70;99.90;;;;;;5004068;28;20206;-76
2023/01/07 09:40:00;;;;;;;5.70;2.27;;;10.70;99.90;;;;;;5015058;28;20312;-78
2023/01/07 09:42:40;;;;;;;3.63;2.63;;;10.70;99.90;;;;;;5038064;28;20202;-76
2023/01/07 09:45:16;;;;;;;3.43;2.50;;;10.70;99.90;;;;;;5043745;28;20280;-76
2023/01/07 09:47:45;;;;;;;3.87;2.20;;;10.70;99.90;;;;;;5036463;28;20483;-77
2023/01/07 09:50:22;;;;;;;3.73;2.00;;;10.70;99.90;;;;;;5024615;28;20913;-83
2023/01/07 09:52:51;;;;;;;2.23;2.03;;;10.80;99.90;;;;;;5025085;28;20198;-76
2023/01/07 09:55:23;;;;;;;4.27;2.10;;;10.80;99.90;;;;;;5023553;28;20205;-77
2023/01/07 09:57:50;;;;;;;2.83;2.10;;;10.80;99.90;;;;;;5003884;28;20192;-77
2023/01/07 10:00:20;;;;;;;2.50;2.00;;;10.80;99.90;;;;;;5004385;28;20206;-77
2023/01/07 10:03:04;;;;;;;2.73;2.07;;;10.80;99.90;;;;;;5004214;28;20219;-76
2023/01/07 10:05:39;;;;;;;2.70;2.30;;;10.90;99.90;;;;;;5003447;28;20243;-78
2023/01/07 10:08:18;;;;;;;2.20;2.00;;;10.90;99.90;;;;;;5004791;28;20191;-76
2023/01/07 10:10:52;;;;;;;2.40;1.83;;;10.90;99.90;;;;;;5004198;28;20832;-77
2023/01/07 10:13:41;;;;;;;2.80;1.90;;;10.90;99.90;;;;;;5005184;28;20201;-80
2023/01/07 10:16:16;;;;;;;4.53;1.77;;;10.90;99.90;;;;;;5005140;28;20203;-83
2023/01/07 10:18:51;;;;;;;1.87;1.70;;;10.90;99.90;;;;;;5005663;28;20314;-78
2023/01/07 10:21:25;;;;;;;3.27;1.90;;;10.90;99.90;;;;;;5004353;28;20277;-77
2023/01/07 10:23:57;;;;;;;2.90;1.80;;;11.00;99.90;;;;;;5004256;28;20607;-79
2023/01/07 10:26:32;;;;;;;3.00;2.00;;;11.00;99.90;;;;;;5003619;28;20230;-78
2023/01/07 10:29:05;;;;;;;3.10;1.80;;;10.90;99.90;;;;;;5003986;28;20230;-77
2023/01/07 10:31:32;;;;;;;3.27;2.00;;;10.90;99.90;;;;;;5004022;28;20191;-77
2023/01/07 10:34:01;;;;;;;2.43;1.93;;;10.90;99.90;;;;;;5004497;28;20689;-75
2023/01/07 10:36:33;;;;;;;2.30;1.77;;;11.00;99.90;;;;;;5004613;28;20926;-75
2023/01/07 10:39:15;;;;;;;3.33;2.23;;;11.00;99.90;;;;;;5004390;28;20224;-76
2023/01/07 10:41:54;;;;;;;3.23;2.10;;;11.00;99.90;;;;;;5003092;28;20285;-76
2023/01/07 10:45:09;;;;;;;2.20;1.53;;;11.00;99.90;;;;;;5004547;28;20307;-77
2023/01/07 10:47:52;;;;;;;2.23;1.77;;;11.00;99.90;;;;;;4964822;28;20286;-77
2023/01/07 10:50:32;;;;;;;3.37;1.87;;;11.00;99.90;;;;;;5024313;28;20234;-77
2023/01/07 10:53:08;;;;;;;3.13;1.70;;;11.00;99.90;;;;;;5023194;28;20190;-80
2023/01/07 10:55:45;;;;;;;2.90;1.50;;;11.10;99.90;;;;;;5026808;28;20182;-78
2023/01/07 10:58:12;;;;;;;2.17;1.53;;;11.00;99.90;;;;;;5008682;28;20222;-76
2023/01/07 11:00:40;;;;;;;7.63;2.03;;;11.10;99.90;;;;;;5007780;28;20499;-76
2023/01/07 11:03:18;;;;;;;5.60;1.37;;;11.10;99.90;;;;;;5007876;28;20294;-76
2023/01/07 11:05:46;;;;;;;4.97;1.70;;;11.10;99.90;;;;;;5008839;28;20243;-83
2023/01/07 11:08:28;;;;;;;2.77;1.50;;;11.20;99.90;;;;;;5006717;28;20623;-76
2023/01/07 11:10:54;;;;;;;2.00;1.30;;;11.20;99.90;;;;;;5007795;28;20215;-78
2023/01/07 11:13:25;;;;;;;3.70;1.83;;;11.30;99.90;;;;;;5007622;28;20215;-77
2023/01/07 11:15:56;;;;;;;1.97;1.50;;;11.30;99.90;;;;;;5006936;28;20192;-78
2023/01/07 11:18:28;;;;;;;2.77;1.30;;;11.40;99.90;;;;;;5007756;28;20862;-77
2023/01/07 11:20:56;;;;;;;2.40;1.20;;;11.40;99.90;;;;;;5008306;28;20199;-85
2023/01/07 11:23:35;;;;;;;1.20;0.90;;;11.40;99.90;;;;;;5006682;28;20765;-77
2023/01/07 11:26:16;;;;;;;2.37;1.17;;;11.50;99.90;;;;;;5006722;28;20195;-79
2023/01/07 11:28:51;;;;;;;3.30;1.37;;;11.50;99.90;;;;;;5005993;28;20254;-78
2023/01/07 11:31:19;;;;;;;3.40;1.30;;;11.50;99.90;;;;;;5006870;28;20226;-77
2023/01/07 11:33:48;;;;;;;1.50;1.37;;;11.60;99.90;;;;;;5006453;28;20212;-78
2023/01/07 11:36:16;;;;;;;1.30;1.20;;;11.60;99.90;;;;;;5006219;28;20648;-77
2023/01/07 11:38:45;;;;;;;1.67;1.40;;;11.60;99.90;;;;;;5005824;28;20560;-77
2023/01/07 11:41:22;;;;;;;3.33;1.30;;;11.50;99.90;;;;;;5007362;28;20203;-77
2023/01/07 11:43:51;;;;;;;1.87;1.50;;;11.50;99.90;;;;;;5006139;28;20203;-78
2023/01/07 11:46:20;;;;;;;2.47;1.83;;;11.50;99.90;;;;;;5006565;28;20231;-77
2023/01/07 11:48:51;;;;;;;2.67;1.40;;;11.50;99.90;;;;;;5007886;28;20195;-78
2023/01/07 11:51:21;;;;;;;1.70;1.40;;;11.40;99.90;;;;;;5007165;28;20218;-77
2023/01/07 11:53:55;;;;;;;3.33;1.70;;;11.30;99.90;;;;;;5005893;28;20210;-77
2023/01/07 11:56:27;;;;;;;3.57;1.50;;;11.30;99.90;;;;;;5006700;28;20268;-77
2023/01/07 11:59:22;;;;;;;1.90;1.60;;;11.40;99.90;;;;;;5006193;28;20844;-78
2023/01/07 12:01:50;;;;;;;2.27;1.60;;;11.30;99.90;;;;;;5006172;28;20580;-78
2023/01/07 12:04:21;;;;;;;2.77;1.60;;;11.30;99.90;;;;;;5005655;28;20235;-78
2023/01/07 12:06:52;;;;;;;1.53;1.27;;;11.30;99.90;;;;;;5006588;28;20745;-77
2023/01/07 12:09:31;;;;;;;3.23;1.20;;;11.30;99.90;;;;;;5006725;28;20215;-76
2023/01/07 12:12:05;;;;;;;1.20;1.10;;;11.40;99.90;;;;;;5005899;28;20193;-78
2023/01/07 12:14:35;;;;;;;2.87;1.50;;;11.40;99.90;;;;;;5006325;28;20283;-80
2023/01/07 12:17:14;;;;;;;1.63;1.20;;;11.40;99.90;;;;;;5006861;28;20214;-77
2023/01/07 12:20:05;;;;;;;1.43;1.10;;;11.50;99.90;;;;;;5006299;28;20786;-78
2023/01/07 12:22:41;;;;;;;3.10;1.70;;;11.50;99.90;;;;;;5004650;28;20203;-86
2023/01/07 12:25:22;;;;;;;1.97;1.20;;;11.50;99.90;;;;;;5008334;28;20785;-77
2023/01/07 12:27:59;;;;;;;2.53;1.67;;;11.50;99.90;;;;;;5005656;28;20246;-78
2023/01/07 12:30:48;;;;;;;1.43;1.20;;;11.50;99.90;;;;;;5008950;28;20674;-83
2023/01/07 12:33:26;;;;;;;1.83;1.70;;;11.50;99.90;;;;;;5005332;28;20630;-79
2023/01/07 12:35:56;;;;;;;1.77;1.63;;;11.50;99.90;;;;;;5006788;28;20310;-86
2023/01/07 12:38:27;;;;;;;2.47;1.60;;;11.40;99.90;;;;;;5018523;28;20205;-76
2023/01/07 12:41:00;;;;;;;1.97;1.60;;;11.40;99.90;;;;;;5025707;28;20653;-78
2023/01/07 12:43:33;;;;;;;1.80;1.70;;;11.40;99.90;;;;;;5025908;28;20198;-79
2023/01/07 12:46:02;;;;;;;4.70;3.00;;;11.40;99.90;;;;;;5011970;28;20205;-78
2023/01/07 12:48:36;;;;;;;1.97;1.57;;;11.40;99.90;;;;;;5004725;28;20334;-78
2023/01/07 12:51:10;;;;;;;1.57;1.47;;;11.40;99.90;;;;;;5006941;28;20333;-78
2023/01/07 12:53:41;;;;;;;1.40;1.30;;;11.40;99.90;;;;;;5023349;28;20199;-78
2023/01/07 12:56:13;;;;;;;2.33;1.73;;;11.40;99.90;;;;;;5014408;28;20202;-79
2023/01/07 12:58:45;;;;;;;1.80;1.40;;;11.40;99.90;;;;;;5023344;28;20595;-79
2023/01/07 13:01:21;;;;;;;1.60;1.50;;;11.50;99.90;;;;;;5011765;28;20207;-77
2023/01/07 13:03:59;;;;;;;2.53;1.60;;;11.40;99.90;;;;;;5005458;28;20206;-78